Aérodrome :
LOGIN :

S'inscrire | Disclaimer

   EN    FR    IT 

 










Légende :    VFR   VFR Marginal   IFR   IFR Intensif   IFR Très Intensif
Visi : 
Plafond : 
>= 8 km
>= 3000ft
5 à 8 km
1000 à 3000 ft
1500m à 5 km
500 à 1000 ft
800 à 1500m
200 à 500 ft
< 800m
< 200 ft
Symboles :   Orages  Brouillard  Fortes neiges  Fortes précipitations  Vent > 20 kt
SIGMETs :   Divers  Orages  Givrage  Turbulence  Onde Orograph.  Cendres Volcan.






- Altitude de l'aérodrome : 2031 ft


LEGT - Madrid Getafe

DERNIER METAR :
  • 010730Z 06006KT 020V090 CAVOK 16/08 Q1019

METARs EXPIRÉS :
  • 010700Z 05006KT 020V080 CAVOK 16/08 Q1019
  • 010630Z 04007KT 010V070 CAVOK 15/08 Q1018
  • 010600Z 04006KT CAVOK 15/09 Q1018
  • 010530Z 05006KT CAVOK 14/08 Q1018
  • 010500Z 04006KT CAVOK 14/08 Q1018

TAF AMD TAF LEGT
Valide du 01 à 06h jusqu'au 02 à 06h UTC


010542Z 0106/0206 04010KT CAVOK TX28/0115Z TN13/0106Z
TEMPO 0109/0112 VRB05KT
TEMPO 0112/0120 24005KT
PROB30
TEMPO 0112/0117 FEW050TCU
BECMG 0121/0123 03005KT



MET'MAP, la Météo Aéronautique d'un coup d'oeil ! - Copyright ORBIFLY Décembre 2007 - Disclaimer

ORBIFLY MET'MAP TEAM :

Programmation & Développement : Alexandra Zaïnal
Sur une idée originale de : Baudouin d'Aumeries
Assistance à la programmation : Marc-Olivier Méhu
Soutien technique & logistique : Manuel Goepfert

Contact : metmap@orbifly.com




SOURCES & CREDITS :

   NOAA